createdAt,value
2019-04-29T00:01:35.580Z,74.10
2019-04-29T00:04:04.266Z,74.20
2019-04-29T00:06:33.199Z,74.30
2019-04-29T00:09:01.781Z,74.50
2019-04-29T00:11:30.211Z,74.40
2019-04-29T00:13:59.085Z,74.30
2019-04-29T00:16:45.582Z,74.10
2019-04-29T00:19:24.610Z,74.10
2019-04-29T00:21:53.501Z,74.10
2019-04-29T00:24:21.899Z,73.90
2019-04-29T00:26:50.332Z,73.60
2019-04-29T00:29:19.063Z,73.40
2019-04-29T00:31:47.628Z,73.40
2019-04-29T00:34:16.058Z,73.50
2019-04-29T00:36:46.888Z,73.50
2019-04-29T00:39:35.440Z,73.20
2019-04-29T00:42:09.421Z,73.30
2019-04-29T00:44:37.854Z,73.40
2019-04-29T00:47:07.792Z,73.40
2019-04-29T00:49:36.322Z,73.60
2019-04-29T00:52:04.708Z,73.70
2019-04-29T00:54:35.139Z,74.00
2019-04-29T00:57:04.018Z,74.20
2019-04-29T00:59:32.668Z,74.20
2019-04-29T01:02:01.083Z,74.30
2019-04-29T01:04:29.539Z,74.20
2019-04-29T01:06:57.975Z,74.20
2019-04-29T01:09:26.645Z,74.40
2019-04-29T01:11:55.144Z,74.40
2019-04-29T01:14:23.542Z,74.50
2019-04-29T01:16:51.944Z,74.60
2019-04-29T01:19:20.415Z,74.60
2019-04-29T01:21:49.090Z,74.60
2019-04-29T01:24:17.482Z,74.70
2019-04-29T01:26:47.887Z,74.60
2019-04-29T01:29:18.517Z,74.70
2019-04-29T01:31:47.421Z,74.80
2019-04-29T01:34:17.823Z,74.80
2019-04-29T01:36:47.516Z,74.80
2019-04-29T01:39:16.680Z,74.70
2019-04-29T01:41:50.263Z,74.70
2019-04-29T01:44:20.167Z,74.80
2019-04-29T01:46:49.082Z,74.70
2019-04-29T01:49:17.910Z,74.70
2019-04-29T01:51:46.663Z,74.60
2019-04-29T01:54:15.092Z,74.70
2019-04-29T01:56:43.823Z,74.70
2019-04-29T01:59:12.231Z,74.70
2019-04-29T02:01:40.645Z,74.70
2019-04-29T02:04:10.090Z,74.60
2019-04-29T02:06:38.510Z,74.40
2019-04-29T02:09:10.245Z,74.40
2019-04-29T02:11:39.672Z,74.20
2019-04-29T02:14:08.087Z,74.50
2019-04-29T02:16:36.557Z,74.60
2019-04-29T02:19:05.308Z,74.70
2019-04-29T02:21:33.728Z,74.70
2019-04-29T02:24:06.750Z,74.70
2019-04-29T02:26:35.775Z,74.50
2019-04-29T02:29:04.399Z,74.60
2019-04-29T02:31:38.657Z,74.70
2019-04-29T02:34:08.186Z,74.20
2019-04-29T02:36:37.706Z,74.30
2019-04-29T02:39:19.584Z,74.40
2019-04-29T02:42:08.045Z,74.10
2019-04-29T02:44:36.639Z,74.00
2019-04-29T02:47:05.070Z,73.90
2019-04-29T02:49:33.815Z,73.80
2019-04-29T02:52:02.498Z,74.00
2019-04-29T02:54:30.919Z,74.00
2019-04-29T02:57:10.298Z,73.70
2019-04-29T02:59:43.403Z,73.90
2019-04-29T03:02:17.053Z,73.50
2019-04-29T03:05:05.358Z,73.60
2019-04-29T03:07:33.997Z,73.90
2019-04-29T03:10:02.408Z,74.20
2019-04-29T03:12:31.036Z,74.50
2019-04-29T03:15:00.357Z,74.70
2019-04-29T03:17:29.821Z,74.90
2019-04-29T03:20:16.731Z,74.90
2019-04-29T03:22:46.895Z,74.90
2019-04-29T03:25:15.645Z,75.00
2019-04-29T03:27:44.190Z,75.00
2019-04-29T03:30:13.417Z,75.20
2019-04-29T03:32:41.831Z,75.10
2019-04-29T03:35:10.674Z,75.30
2019-04-29T03:37:41.110Z,75.40
2019-04-29T03:40:09.618Z,75.30
2019-04-29T03:42:38.732Z,75.20
2019-04-29T03:45:07.400Z,75.20
2019-04-29T03:47:35.802Z,75.50
2019-04-29T03:50:05.579Z,75.50
2019-04-29T03:52:34.295Z,75.40
2019-04-29T03:55:02.760Z,75.40
2019-04-29T03:57:33.128Z,75.40
2019-04-29T04:00:01.816Z,75.70
2019-04-29T04:02:38.398Z,75.50
2019-04-29T04:05:25.041Z,75.40
2019-04-29T04:07:55.100Z,75.40
2019-04-29T04:10:24.708Z,75.40
2019-04-29T04:12:53.185Z,75.40
2019-04-29T04:15:22.264Z,75.60
2019-04-29T04:17:58.071Z,75.40
2019-04-29T04:20:27.183Z,75.60
2019-04-29T04:22:55.723Z,75.50
2019-04-29T04:25:24.512Z,75.70
2019-04-29T04:27:53.078Z,75.80
2019-04-29T04:30:21.932Z,75.90
2019-04-29T04:32:50.492Z,75.90
2019-04-29T04:35:18.956Z,75.90
2019-04-29T04:37:47.346Z,76.00
2019-04-29T04:40:20.877Z,76.00
2019-04-29T04:42:49.805Z,76.00
2019-04-29T04:45:18.537Z,76.10
2019-04-29T04:47:47.230Z,76.30
2019-04-29T04:50:16.255Z,76.50
2019-04-29T04:52:44.680Z,76.50
2019-04-29T04:55:13.612Z,76.50
2019-04-29T04:57:42.151Z,76.60
2019-04-29T05:00:20.261Z,76.50
2019-04-29T05:02:49.058Z,76.30
2019-04-29T05:05:17.979Z,76.40
2019-04-29T05:07:46.823Z,76.60
2019-04-29T05:10:15.537Z,76.60
2019-04-29T05:12:44.001Z,76.50
2019-04-29T05:15:12.791Z,76.50
2019-04-29T05:17:41.558Z,76.50
2019-04-29T05:20:10.301Z,76.50
2019-04-29T05:22:39.022Z,76.40
2019-04-29T05:25:08.120Z,76.40
2019-04-29T05:27:36.527Z,76.30
2019-04-29T05:30:05.942Z,76.30
2019-04-29T05:32:34.404Z,76.30
2019-04-29T05:35:14.041Z,76.30
2019-04-29T05:37:49.947Z,76.10
2019-04-29T05:40:36.707Z,76.20
2019-04-29T05:43:05.682Z,76.20
2019-04-29T05:45:35.739Z,76.20
2019-04-29T05:48:08.501Z,76.40
2019-04-29T05:50:47.559Z,76.40
2019-04-29T05:53:17.943Z,76.10
2019-04-29T05:55:46.942Z,75.90
2019-04-29T05:58:15.400Z,75.90
2019-04-29T06:00:46.999Z,75.70
2019-04-29T06:03:15.678Z,75.20
2019-04-29T06:05:44.452Z,74.90
2019-04-29T06:08:13.181Z,74.90
2019-04-29T06:10:42.198Z,75.10
2019-04-29T06:13:11.053Z,74.90
2019-04-29T06:15:40.201Z,74.60
2019-04-29T06:18:08.601Z,74.60
2019-04-29T06:20:37.133Z,74.30
2019-04-29T06:23:05.654Z,74.30
2019-04-29T06:25:34.115Z,74.20
2019-04-29T06:28:03.006Z,74.20
2019-04-29T06:30:31.437Z,74.20
2019-04-29T06:32:59.868Z,74.10
2019-04-29T06:35:28.632Z,74.00
2019-04-29T06:37:57.053Z,74.10
2019-04-29T06:40:25.461Z,73.80
2019-04-29T06:42:55.180Z,73.70
2019-04-29T06:45:24.020Z,73.50
2019-04-29T06:47:53.321Z,73.20
2019-04-29T06:50:21.780Z,72.90
2019-04-29T06:52:50.224Z,72.50
2019-04-29T06:55:18.635Z,72.70
2019-04-29T06:57:47.079Z,73.00
2019-04-29T07:00:17.644Z,72.70
2019-04-29T07:02:49.947Z,72.10
2019-04-29T07:05:16.424Z,71.90
2019-04-29T07:07:45.008Z,72.20
2019-04-29T07:10:16.531Z,72.10
2019-04-29T07:12:47.390Z,71.80
2019-04-29T07:15:15.394Z,71.60
2019-04-29T07:17:44.262Z,71.60
2019-04-29T07:20:13.403Z,71.00
2019-04-29T07:22:41.873Z,70.50
2019-04-29T07:25:10.476Z,70.10
2019-04-29T07:27:43.390Z,70.20
2019-04-29T07:30:10.038Z,70.10
2019-04-29T07:32:42.254Z,69.50
2019-04-29T07:35:09.969Z,69.70
2019-04-29T07:37:39.600Z,70.10
2019-04-29T07:40:09.390Z,70.00
2019-04-29T07:42:37.998Z,69.40
2019-04-29T07:45:28.267Z,69.00
2019-04-29T07:48:01.590Z,68.80
2019-04-29T07:50:28.546Z,68.10
2019-04-29T07:52:57.133Z,68.00
2019-04-29T07:55:30.473Z,68.00
2019-04-29T07:57:56.058Z,67.60
2019-04-29T08:00:33.515Z,68.10
2019-04-29T08:03:03.274Z,68.10
2019-04-29T08:05:31.821Z,68.10
2019-04-29T08:08:00.818Z,67.70
2019-04-29T08:10:29.919Z,67.30
2019-04-29T08:12:59.475Z,67.80
2019-04-29T08:15:31.582Z,67.80
2019-04-29T08:18:06.366Z,68.30
2019-04-29T08:20:29.636Z,68.00
2019-04-29T08:23:02.537Z,68.20
2019-04-29T08:25:28.783Z,67.70
2019-04-29T08:27:57.187Z,67.80
2019-04-29T08:30:25.641Z,67.20
2019-04-29T08:32:54.487Z,67.10
2019-04-29T08:35:23.011Z,66.50
2019-04-29T08:37:51.860Z,66.90
2019-04-29T08:40:20.350Z,66.00
2019-04-29T08:43:06.996Z,65.10
2019-04-29T08:45:39.206Z,65.40
2019-04-29T08:48:07.459Z,64.90
2019-04-29T08:50:36.285Z,65.80
2019-04-29T08:53:08.547Z,63.70
2019-04-29T08:55:37.007Z,63.90
2019-04-29T08:58:06.933Z,63.10
2019-04-29T09:00:35.847Z,62.90
2019-04-29T09:03:04.487Z,61.80
2019-04-29T09:05:32.922Z,61.40
2019-04-29T09:08:01.314Z,61.50
2019-04-29T09:10:32.985Z,61.30
2019-04-29T09:12:59.877Z,61.40
2019-04-29T09:15:28.285Z,60.60
2019-04-29T09:17:56.683Z,59.40
2019-04-29T09:20:25.421Z,59.10
2019-04-29T09:23:08.348Z,57.70
2019-04-29T09:25:41.802Z,58.20
2019-04-29T09:28:17.676Z,57.30
2019-04-29T09:30:42.145Z,56.60
2019-04-29T09:33:13.171Z,56.10
2019-04-29T09:35:40.712Z,55.90
2019-04-29T09:38:09.144Z,54.90
2019-04-29T09:40:39.555Z,51.80
2019-04-29T09:43:15.691Z,51.60
2019-04-29T09:46:01.961Z,51.20
2019-04-29T09:48:30.806Z,50.80
2019-04-29T09:50:59.264Z,51.00
2019-04-29T09:53:27.700Z,51.00
2019-04-29T09:55:56.459Z,50.90
2019-04-29T09:58:26.372Z,51.10
2019-04-29T10:01:18.683Z,50.40
2019-04-29T10:03:50.480Z,49.00
2019-04-29T10:06:23.248Z,48.20
2019-04-29T10:08:51.634Z,48.70
2019-04-29T10:11:20.034Z,47.10
2019-04-29T10:13:48.508Z,47.00
2019-04-29T10:16:18.825Z,47.20
2019-04-29T10:19:00.728Z,46.00
2019-04-29T10:21:28.223Z,46.00
2019-04-29T10:23:57.083Z,45.50
2019-04-29T10:26:25.743Z,45.60
2019-04-29T10:28:56.116Z,46.70
2019-04-29T10:31:24.885Z,46.20
2019-04-29T10:33:54.816Z,46.20
2019-04-29T10:36:26.250Z,46.10
2019-04-29T10:38:56.526Z,46.30
2019-04-29T10:41:29.675Z,47.90
2019-04-29T10:44:16.266Z,46.60
2019-04-29T10:46:55.342Z,46.60
2019-04-29T10:49:28.819Z,46.40
2019-04-29T10:51:58.047Z,46.70
2019-04-29T10:54:28.560Z,46.10
2019-04-29T10:56:57.017Z,46.70
2019-04-29T10:59:35.689Z,45.40
2019-04-29T11:02:18.437Z,46.60
2019-04-29T11:04:48.950Z,45.70
2019-04-29T11:07:26.380Z,47.30
2019-04-29T11:09:54.398Z,46.40
2019-04-29T11:12:23.173Z,45.80
2019-04-29T11:14:51.923Z,45.00
2019-04-29T11:17:23.081Z,44.20
2019-04-29T11:19:51.865Z,44.60
2019-04-29T11:22:21.959Z,44.80
2019-04-29T11:25:03.973Z,45.50
2019-04-29T11:27:34.306Z,45.50
2019-04-29T11:30:04.941Z,46.80
2019-04-29T11:32:35.568Z,45.60
2019-04-29T11:35:06.470Z,46.10
2019-04-29T11:37:34.988Z,45.40
2019-04-29T11:40:04.718Z,46.10
2019-04-29T11:42:36.761Z,46.20
2019-04-29T11:45:07.031Z,46.90
2019-04-29T11:47:35.522Z,46.40
2019-04-29T11:50:11.965Z,45.50
2019-04-29T11:52:39.309Z,45.70
2019-04-29T11:55:08.236Z,45.80
2019-04-29T11:57:40.950Z,46.20
2019-04-29T12:00:29.441Z,46.40
2019-04-29T12:03:05.913Z,47.50
2019-04-29T12:05:40.280Z,46.60
2019-04-29T12:08:16.112Z,46.90
2019-04-29T12:10:48.488Z,46.40
2019-04-29T12:13:11.855Z,46.50
2019-04-29T12:15:45.063Z,46.00
2019-04-29T12:18:19.998Z,45.90
2019-04-29T12:20:50.058Z,47.60
2019-04-29T12:23:18.819Z,45.70
2019-04-29T12:25:48.595Z,45.70
2019-04-29T12:28:19.410Z,46.20
2019-04-29T12:30:51.845Z,45.90
2019-04-29T12:33:22.226Z,45.90
2019-04-29T12:36:07.505Z,46.20
2019-04-29T12:38:40.200Z,46.70
2019-04-29T12:41:30.253Z,46.00
2019-04-29T12:43:59.592Z,45.30
2019-04-29T12:46:38.992Z,45.70
2019-04-29T12:49:09.498Z,46.20
2019-04-29T12:51:37.839Z,44.70
2019-04-29T12:54:07.202Z,45.40
2019-04-29T12:56:37.266Z,45.50
2019-04-29T12:59:06.427Z,44.60
2019-04-29T13:01:51.543Z,45.00
2019-04-29T13:04:23.533Z,45.30
2019-04-29T13:07:06.661Z,45.20
2019-04-29T13:09:39.278Z,45.40
2019-04-29T13:12:18.894Z,45.60
2019-04-29T13:14:39.886Z,45.40
2019-04-29T13:17:14.759Z,45.60
2019-04-29T13:20:02.032Z,45.50
2019-04-29T13:22:29.430Z,44.90
2019-04-29T13:24:57.831Z,45.60
2019-04-29T13:27:26.737Z,46.00
2019-04-29T13:29:55.587Z,46.60
2019-04-29T13:32:25.385Z,47.00
2019-04-29T13:34:54.181Z,47.50
2019-04-29T13:37:22.642Z,46.90
2019-04-29T13:39:55.225Z,46.50
2019-04-29T13:42:21.218Z,46.70
2019-04-29T13:45:05.086Z,46.90
2019-04-29T13:47:28.357Z,47.50
2019-04-29T13:49:55.927Z,47.40
2019-04-29T13:52:24.326Z,47.20
2019-04-29T13:54:52.728Z,47.00
2019-04-29T13:57:21.424Z,47.40
2019-04-29T13:59:51.470Z,48.10
2019-04-29T14:02:22.775Z,48.40
2019-04-29T14:04:55.944Z,49.50
2019-04-29T14:07:24.301Z,50.20
2019-04-29T14:09:52.701Z,49.30
2019-04-29T14:14:54.039Z,48.90
2019-04-29T14:17:26.563Z,48.00
2019-04-29T14:19:53.156Z,48.40
2019-04-29T14:22:22.769Z,48.80
2019-04-29T14:24:51.221Z,49.40
2019-04-29T14:27:25.244Z,50.00
2019-04-29T14:29:51.531Z,50.60
2019-04-29T14:32:33.456Z,51.10
2019-04-29T14:35:07.242Z,51.00
2019-04-29T14:37:32.922Z,51.20
2019-04-29T14:40:02.891Z,51.90
2019-04-29T14:42:56.633Z,51.80
2019-04-29T14:45:29.702Z,52.60
2019-04-29T14:48:11.967Z,52.80
2019-04-29T14:50:41.327Z,53.50
2019-04-29T14:53:10.204Z,54.00
2019-04-29T14:55:39.534Z,53.80
2019-04-29T14:58:08.271Z,53.90
2019-04-29T15:00:44.894Z,54.60
2019-04-29T15:03:13.682Z,55.30
2019-04-29T15:05:42.684Z,56.30
2019-04-29T15:08:11.217Z,57.60
2019-04-29T15:10:40.243Z,58.20
2019-04-29T15:13:21.264Z,59.00
2019-04-29T15:16:03.753Z,60.00
2019-04-29T15:18:32.880Z,59.80
2019-04-29T15:20:56.293Z,59.60
2019-04-29T15:23:28.881Z,60.30
2019-04-29T15:25:55.201Z,61.20
2019-04-29T15:28:23.806Z,60.80
2019-04-29T15:30:52.507Z,60.90
2019-04-29T15:33:21.167Z,61.20
2019-04-29T15:35:49.617Z,61.40
2019-04-29T15:38:18.121Z,62.80
2019-04-29T15:40:46.538Z,64.60
2019-04-29T15:43:17.883Z,66.30
2019-04-29T15:45:45.196Z,65.10
2019-04-29T15:48:13.601Z,64.60
2019-04-29T15:50:42.297Z,63.70
2019-04-29T15:53:11.026Z,61.50
2019-04-29T15:55:41.284Z,61.80
2019-04-29T15:58:09.721Z,62.30
2019-04-29T16:00:40.436Z,63.00
2019-04-29T16:03:12.743Z,63.00
2019-04-29T16:06:04.338Z,62.90
2019-04-29T16:08:15.979Z,62.60
2019-04-29T16:11:02.619Z,62.00
2019-04-29T16:13:31.321Z,61.50
2019-04-29T16:16:00.542Z,61.20
2019-04-29T16:18:28.966Z,61.50
2019-04-29T16:20:57.521Z,61.90
2019-04-29T16:23:25.923Z,62.00
2019-04-29T16:25:54.617Z,60.10
2019-04-29T16:28:30.942Z,59.90
2019-04-29T16:30:54.418Z,60.10
2019-04-29T16:33:23.595Z,60.70
2019-04-29T16:35:52.041Z,61.80
2019-04-29T16:38:21.031Z,59.10
2019-04-29T16:41:00.422Z,59.60
2019-04-29T16:43:31.112Z,58.90
2019-04-29T16:46:04.257Z,59.40
2019-04-29T16:48:33.353Z,61.30
2019-04-29T16:51:06.684Z,60.40
2019-04-29T16:53:32.386Z,61.00
2019-04-29T16:56:01.148Z,62.20
2019-04-29T16:58:29.779Z,63.20
2019-04-29T17:00:58.191Z,64.20
2019-04-29T17:03:26.628Z,63.80
2019-04-29T17:05:55.298Z,62.90
2019-04-29T17:08:25.842Z,63.40
2019-04-29T17:10:56.568Z,63.30
2019-04-29T17:13:25.237Z,63.40
2019-04-29T17:15:53.888Z,63.20
2019-04-29T17:18:22.460Z,63.70
2019-04-29T17:20:51.659Z,63.60
2019-04-29T17:23:24.131Z,63.20
2019-04-29T17:25:50.211Z,63.00
2019-04-29T17:28:25.821Z,63.60
2019-04-29T17:31:11.648Z,63.50
2019-04-29T17:33:37.482Z,63.20
2019-04-29T17:36:06.893Z,63.10
2019-04-29T17:38:35.575Z,62.80
2019-04-29T17:41:04.000Z,63.00
2019-04-29T17:43:51.265Z,63.00
2019-04-29T17:46:30.229Z,62.70
2019-04-29T17:49:17.091Z,63.50
2019-04-29T17:51:46.001Z,63.30
2019-04-29T17:54:25.518Z,63.10
2019-04-29T17:57:25.072Z,63.10
2019-04-29T17:59:36.795Z,63.30
2019-04-29T18:02:22.097Z,63.80
2019-04-29T18:04:57.335Z,63.80
2019-04-29T18:07:44.994Z,63.70
2019-04-29T18:10:17.565Z,64.60
2019-04-29T18:12:45.517Z,64.00
2019-04-29T18:15:20.018Z,63.80
2019-04-29T18:17:46.729Z,63.90
2019-04-29T18:20:35.825Z,63.80
2019-04-29T18:23:11.085Z,63.60
2019-04-29T18:25:42.342Z,63.40
2019-04-29T18:28:11.059Z,63.40
2019-04-29T18:30:40.025Z,63.80
2019-04-29T18:33:08.470Z,63.70
2019-04-29T18:35:36.954Z,64.40
2019-04-29T18:38:07.465Z,65.00
2019-04-29T18:40:42.034Z,65.50
2019-04-29T18:43:06.347Z,65.80
2019-04-29T18:45:36.808Z,66.10
2019-04-29T18:48:08.999Z,66.40
2019-04-29T18:50:38.835Z,66.30
2019-04-29T18:53:06.933Z,66.80
2019-04-29T18:55:36.089Z,66.10
2019-04-29T18:58:05.799Z,66.60
2019-04-29T19:00:34.873Z,67.20
2019-04-29T19:03:04.241Z,66.60
2019-04-29T19:05:40.593Z,66.70
2019-04-29T19:08:14.300Z,66.50
2019-04-29T19:10:41.324Z,67.10
2019-04-29T19:13:14.872Z,67.10
2019-04-29T19:15:47.007Z,67.90
2019-04-29T19:18:12.467Z,67.40
2019-04-29T19:20:41.688Z,66.70
2019-04-29T19:23:10.483Z,66.70
2019-04-29T19:25:41.514Z,66.70
2019-04-29T19:28:14.331Z,67.30
2019-04-29T19:30:40.175Z,67.40
2019-04-29T19:33:09.056Z,67.40
2019-04-29T19:35:38.770Z,65.80
2019-04-29T19:38:12.408Z,66.00
2019-04-29T19:40:41.309Z,65.90
2019-04-29T19:43:10.273Z,65.80
2019-04-29T19:45:38.696Z,65.80
2019-04-29T19:48:07.189Z,66.20
2019-04-29T19:50:35.901Z,66.30
2019-04-29T19:53:04.888Z,66.40
2019-04-29T19:55:41.785Z,66.30
2019-04-29T19:58:07.114Z,66.70
2019-04-29T20:00:38.356Z,66.80
2019-04-29T20:03:18.298Z,66.60
2019-04-29T20:05:45.949Z,67.00
2019-04-29T20:08:26.623Z,66.80
2019-04-29T20:10:48.209Z,66.90
2019-04-29T20:13:15.186Z,67.00
2019-04-29T20:15:46.303Z,67.40
2019-04-29T20:18:34.432Z,67.60
2019-04-29T20:21:08.847Z,67.50
2019-04-29T20:23:38.469Z,67.80
2019-04-29T20:26:13.927Z,68.30
2019-04-29T20:28:36.000Z,68.40
2019-04-29T20:31:16.379Z,68.40
2019-04-29T20:33:37.076Z,68.30
2019-04-29T20:36:06.161Z,68.20
2019-04-29T20:38:38.752Z,68.40
2019-04-29T20:41:07.992Z,68.60
2019-04-29T20:43:36.674Z,68.70
2019-04-29T20:46:05.726Z,68.70
2019-04-29T20:48:36.788Z,69.00
2019-04-29T20:51:11.537Z,69.00
2019-04-29T20:53:39.802Z,69.40
2019-04-29T20:56:12.030Z,69.40
2019-04-29T20:58:39.177Z,69.60
2019-04-29T21:01:11.249Z,69.80
2019-04-29T21:03:44.882Z,69.90
2019-04-29T21:06:10.861Z,70.10
2019-04-29T21:08:39.683Z,70.20
2019-04-29T21:11:16.151Z,70.30
2019-04-29T21:13:55.690Z,70.50
2019-04-29T21:16:22.717Z,70.70
2019-04-29T21:18:54.883Z,70.50
2019-04-29T21:21:25.433Z,70.40
2019-04-29T21:23:55.295Z,70.50
2019-04-29T21:26:26.081Z,70.70
2019-04-29T21:28:55.558Z,70.80
2019-04-29T21:31:25.523Z,70.80
2019-04-29T21:33:58.956Z,70.90
2019-04-29T21:36:45.332Z,70.70
2019-04-29T21:39:17.929Z,70.70
2019-04-29T21:41:55.514Z,70.60
2019-04-29T21:44:27.849Z,70.40
2019-04-29T21:46:55.271Z,70.40
2019-04-29T21:49:25.694Z,70.50
2019-04-29T21:51:55.481Z,70.60
2019-04-29T21:54:24.035Z,70.50
2019-04-29T21:56:52.467Z,70.60
2019-04-29T21:59:20.933Z,70.60
2019-04-29T22:01:49.521Z,70.80
2019-04-29T22:04:18.294Z,70.90
2019-04-29T22:06:47.508Z,70.90
2019-04-29T22:09:16.387Z,70.90
2019-04-29T22:11:46.874Z,71.10
2019-04-29T22:14:15.697Z,71.30
2019-04-29T22:16:47.532Z,71.70
2019-04-29T22:19:17.379Z,71.60
2019-04-29T22:21:45.908Z,71.90
2019-04-29T22:24:14.514Z,71.80
2019-04-29T22:26:44.956Z,71.80
2019-04-29T22:29:13.488Z,72.10
2019-04-29T22:31:42.121Z,72.30
2019-04-29T22:34:15.239Z,72.50
2019-04-29T22:36:40.992Z,72.60
2019-04-29T22:39:09.656Z,73.00
2019-04-29T22:41:56.007Z,73.50
2019-04-29T22:44:25.974Z,73.70
2019-04-29T22:46:56.769Z,74.20
2019-04-29T22:49:29.242Z,74.90
2019-04-29T22:51:57.230Z,75.30
2019-04-29T22:54:25.834Z,75.30
2019-04-29T22:56:56.613Z,75.90
2019-04-29T22:59:25.412Z,75.90
2019-04-29T23:01:55.668Z,76.00
2019-04-29T23:04:24.956Z,76.30
2019-04-29T23:06:53.547Z,76.50
2019-04-29T23:09:22.228Z,76.70
2019-04-29T23:11:51.750Z,76.40
2019-04-29T23:14:20.242Z,76.70
2019-04-29T23:16:48.699Z,76.70
2019-04-29T23:19:18.530Z,77.00
2019-04-29T23:22:05.763Z,77.10
2019-04-29T23:24:36.192Z,77.10
2019-04-29T23:27:06.224Z,77.10
2019-04-29T23:29:37.101Z,77.30
2019-04-29T23:32:08.303Z,77.40
2019-04-29T23:34:37.780Z,77.70
2019-04-29T23:37:06.212Z,77.50
2019-04-29T23:39:34.853Z,77.70
2019-04-29T23:42:04.708Z,77.80
2019-04-29T23:44:37.883Z,77.80
2019-04-29T23:47:05.168Z,78.00
2019-04-29T23:49:42.296Z,77.90
2019-04-29T23:52:11.077Z,78.00
2019-04-29T23:54:44.180Z,77.70
2019-04-29T23:57:16.337Z,77.70
